Mulga, Alabama
Current Conditions -  °F | °C
As of 1:53 PM on Monday 22 Dec 2014 (Local Time) from KBHM Reporting Station
Light Rain Light Rain  
Wind Chill: 54°   Ceiling: 900
Heat Index: 54°   Visibility: 7mi
Dew Point: 51°   Wind: 8mph
Humidity: 90%   Direction: 120°ESE
Pressure: 29.81"   Gusts: NA
Location:  33.55°N, 86.97°W
Report Text: KBHM 221953Z 12007KT 7SM -RA OVC009 12/11 A2981 RMK AO2 RAB41 CIG 008V012 SLP094 P0000 T01220106
Loading
Personal Weather Stations






























Interactive Weather Map New forecast layout! Learn more

10-Day Weather Forecast

Advertisements
Track Severe Weather on mobile